METAR Data
IDs: Format: Raw Decoded Include TAF

Data at: 1400 UTC 13 Dec 2019

KASG 131348Z 00000KT 10SM OVC045 05/M01 A2995
KASG 131248Z 00000KT 10SM OVC044 06/M02 A2995
KASG 131148Z 12003KT 10SM BKN043 OVC080 06/M01 A2995
KASG 130248Z 17003KT 10SM OVC065 06/M04 A3008
KASG 130148Z 14003KT 10SM CLR 06/M05 A3008
KASG 130048Z 16004KT 10SM CLR 07/M06 A3009
KASG 122348Z 16004KT 10SM CLR 08/M06 A3009
KASG 122248Z 18006KT 10SM CLR 10/M06 A3009
KASG 122148Z 20010KT 10SM CLR 12/M08 A3010
KASG 122048Z 20013G20KT 10SM CLR 13/M08 A3011
KASG 121948Z 21013G20KT 10SM CLR 13/M09 A3013
KASG 121848Z 19010G21KT 10SM CLR 12/M10 A3019
KASG 121748Z 18014KT 10SM CLR 11/M10 A3024
KASG 121648Z 19012G24KT 10SM CLR 09/M10 A3029
KASG 121548Z 17008KT 10SM CLR 08/M07 A3030
KASG 121448Z 16007KT 10SM CLR 06/M06 A3030
KASG 121348Z 16008KT 10SM CLR 05/M05 A3032
KASG 121248Z 17007KT 10SM CLR 05/M06 A3033
KASG 121148Z 17007KT 10SM CLR 05/M06 A3033
KASG 120248Z 14004KT 10SM CLR 05/M06 A3038